createdAt,value
2023-03-04T00:00:06.097Z,12.82
2023-03-04T00:02:08.763Z,13.05
2023-03-04T00:04:12.899Z,13.90
2023-03-04T00:06:15.538Z,12.55
2023-03-04T00:08:18.237Z,11.75
2023-03-04T00:10:20.871Z,13.45
2023-03-04T00:12:23.528Z,13.10
2023-03-04T00:14:26.972Z,12.13
2023-03-04T00:16:30.429Z,13.45
2023-03-04T00:18:33.112Z,12.73
2023-03-04T00:20:37.057Z,13.52
2023-03-04T00:22:39.969Z,13.30
2023-03-04T00:24:42.721Z,14.25
2023-03-04T00:26:46.482Z,13.27
2023-03-04T00:28:49.133Z,13.40
2023-03-04T00:30:51.871Z,12.10
2023-03-04T00:32:54.456Z,13.63
2023-03-04T00:34:57.185Z,12.77
2023-03-04T00:37:03.661Z,12.93
2023-03-04T00:39:06.837Z,14.38
2023-03-04T00:41:09.463Z,13.77
2023-03-04T00:43:12.055Z,12.73
2023-03-04T00:45:14.691Z,12.98
2023-03-04T00:47:17.362Z,12.65
2023-03-04T00:49:20.000Z,13.23
2023-03-04T00:51:22.624Z,13.52
2023-03-04T00:53:26.667Z,12.98
2023-03-04T00:55:29.315Z,13.18
2023-03-04T00:57:33.074Z,12.90
2023-03-04T00:59:35.727Z,14.57
2023-03-04T01:01:38.374Z,13.45
2023-03-04T01:03:41.524Z,12.30
2023-03-04T01:05:44.232Z,12.55
2023-03-04T01:07:46.965Z,11.75
2023-03-04T01:09:50.979Z,12.55
2023-03-04T01:11:53.676Z,12.80
2023-03-04T01:13:56.360Z,12.85
2023-03-04T01:15:59.014Z,12.23
2023-03-04T01:18:01.706Z,12.82
2023-03-04T01:20:05.617Z,12.65
2023-03-04T01:22:08.310Z,11.95
2023-03-04T01:24:11.078Z,12.18
2023-03-04T01:26:15.131Z,12.82
2023-03-04T01:28:17.863Z,11.98
2023-03-04T01:30:20.879Z,12.73
2023-03-04T01:32:23.760Z,13.35
2023-03-04T01:34:26.531Z,12.23
2023-03-04T01:36:29.171Z,13.07
2023-03-04T01:38:31.920Z,12.25
2023-03-04T01:40:34.731Z,12.55
2023-03-04T01:42:38.761Z,12.60
2023-03-04T01:44:41.458Z,11.98
2023-03-04T01:46:49.575Z,12.60
2023-03-04T01:48:52.333Z,12.40
2023-03-04T01:50:55.017Z,12.48
2023-03-04T01:52:57.643Z,12.63
2023-03-04T01:55:01.083Z,12.27
2023-03-04T01:57:08.116Z,12.88
2023-03-04T01:59:14.324Z,13.20
2023-03-04T02:01:17.062Z,13.13
2023-03-04T02:03:20.733Z,13.60
2023-03-04T02:05:24.564Z,12.38
2023-03-04T02:07:27.312Z,11.48
2023-03-04T02:09:31.733Z,11.95
2023-03-04T02:11:35.518Z,12.15
2023-03-04T02:13:38.200Z,11.98
2023-03-04T02:15:43.259Z,11.38
2023-03-04T02:17:46.155Z,11.52
2023-03-04T02:19:54.050Z,12.55
2023-03-04T02:21:56.690Z,12.18
2023-03-04T02:24:08.171Z,13.38
2023-03-04T02:26:15.388Z,12.27
2023-03-04T02:28:18.073Z,13.32
2023-03-04T02:30:25.296Z,12.70
2023-03-04T02:32:28.012Z,12.80
2023-03-04T02:34:34.050Z,12.95
2023-03-04T02:36:37.932Z,12.55
2023-03-04T02:38:40.535Z,12.95
2023-03-04T02:40:47.694Z,11.25
2023-03-04T02:42:51.708Z,13.98
2023-03-04T02:45:01.226Z,13.02
2023-03-04T02:47:05.850Z,12.15
2023-03-04T02:49:08.434Z,13.00
2023-03-04T02:51:11.189Z,13.60
2023-03-04T02:53:14.146Z,12.05
2023-03-04T02:55:16.944Z,13.43
2023-03-04T02:57:19.791Z,11.98
2023-03-04T02:59:24.616Z,12.43
2023-03-04T03:01:29.677Z,11.88
2023-03-04T03:03:32.392Z,11.82
2023-03-04T03:05:36.071Z,11.40
2023-03-04T03:07:39.053Z,11.85
2023-03-04T03:09:41.685Z,10.18
2023-03-04T03:11:44.345Z,12.60
2023-03-04T03:13:47.031Z,11.27
2023-03-04T03:15:51.163Z,10.68
2023-03-04T03:17:53.774Z,11.55
2023-03-04T03:19:56.413Z,12.00
2023-03-04T03:21:59.099Z,12.25
2023-03-04T03:24:01.765Z,11.93
2023-03-04T03:26:04.913Z,11.55
2023-03-04T03:28:07.562Z,11.50
2023-03-04T03:30:12.643Z,12.90
2023-03-04T03:32:16.931Z,12.07
2023-03-04T03:34:19.665Z,12.30
2023-03-04T03:36:22.386Z,12.55
2023-03-04T03:38:25.174Z,11.85
2023-03-04T03:40:27.871Z,11.93
2023-03-04T03:42:30.493Z,11.43
2023-03-04T03:44:33.182Z,12.73
2023-03-04T03:46:35.925Z,11.75
2023-03-04T03:48:39.912Z,11.77
2023-03-04T03:50:42.554Z,11.45
2023-03-04T03:52:45.203Z,11.18
2023-03-04T03:54:47.856Z,12.07
2023-03-04T03:56:50.454Z,12.50
2023-03-04T03:58:53.107Z,12.35
2023-03-04T04:00:58.303Z,12.18
2023-03-04T04:03:02.105Z,11.63
2023-03-04T04:05:10.328Z,13.48
2023-03-04T04:07:12.966Z,12.85
2023-03-04T04:09:15.655Z,12.10
2023-03-04T04:11:18.406Z,13.07
2023-03-04T04:13:21.049Z,12.77
2023-03-04T04:15:23.801Z,11.50
2023-03-04T04:17:26.386Z,12.70
2023-03-04T04:19:29.248Z,10.45
2023-03-04T04:21:33.244Z,12.50
2023-03-04T04:23:35.941Z,13.07
2023-03-04T04:25:38.786Z,13.25
2023-03-04T04:27:41.454Z,13.60
2023-03-04T04:29:44.109Z,11.73
2023-03-04T04:31:46.848Z,12.00
2023-03-04T04:33:49.514Z,12.63
2023-03-04T04:35:52.333Z,11.80
2023-03-04T04:37:56.262Z,12.23
2023-03-04T04:39:58.949Z,11.80
2023-03-04T04:42:01.650Z,12.65
2023-03-04T04:44:04.665Z,12.80
2023-03-04T04:46:07.281Z,13.40
2023-03-04T04:48:09.967Z,12.13
2023-03-04T04:50:13.042Z,11.75
2023-03-04T04:52:15.955Z,12.82
2023-03-04T04:54:20.312Z,12.27
2023-03-04T04:56:26.346Z,12.55
2023-03-04T04:58:29.264Z,12.60
2023-03-04T05:00:32.079Z,12.25
2023-03-04T05:02:36.435Z,10.75
2023-03-04T05:04:39.213Z,13.32
2023-03-04T05:06:42.186Z,12.18
2023-03-04T05:08:44.976Z,12.27
2023-03-04T05:10:49.345Z,13.80
2023-03-04T05:12:51.955Z,12.23
2023-03-04T05:14:54.650Z,12.60
2023-03-04T05:16:57.295Z,12.30
2023-03-04T05:19:00.040Z,12.90
2023-03-04T05:21:04.866Z,11.48
2023-03-04T05:23:10.132Z,11.88
2023-03-04T05:25:17.256Z,11.48
2023-03-04T05:27:21.170Z,12.75
2023-03-04T05:29:24.068Z,13.30
2023-03-04T05:31:26.695Z,13.40
2023-03-04T05:33:29.602Z,11.55
2023-03-04T05:35:32.237Z,13.35
2023-03-04T05:37:34.912Z,13.25
2023-03-04T05:39:37.521Z,13.40
2023-03-04T05:41:40.129Z,14.55
2023-03-04T05:43:44.080Z,14.43
2023-03-04T05:45:46.699Z,14.02
2023-03-04T05:47:49.314Z,13.35
2023-03-04T05:49:51.951Z,14.00
2023-03-04T05:51:54.706Z,14.77
2023-03-04T05:53:57.276Z,14.85
2023-03-04T05:56:00.262Z,11.98
2023-03-04T05:58:03.004Z,13.32
2023-03-04T06:00:10.544Z,15.50
2023-03-04T06:02:13.145Z,13.30
2023-03-04T06:04:15.857Z,15.15
2023-03-04T06:06:18.497Z,14.68
2023-03-04T06:08:21.200Z,14.23
2023-03-04T06:10:24.097Z,14.95
2023-03-04T06:12:26.828Z,14.68
2023-03-04T06:14:29.465Z,14.90
2023-03-04T06:16:34.059Z,13.60
2023-03-04T06:18:36.739Z,13.02
2023-03-04T06:20:39.481Z,13.27
2023-03-04T06:22:42.163Z,12.45
2023-03-04T06:24:44.843Z,13.30
2023-03-04T06:26:47.457Z,10.88
2023-03-04T06:28:50.125Z,14.05
2023-03-04T06:30:53.061Z,12.50
2023-03-04T06:32:57.387Z,12.80
2023-03-04T06:35:00.013Z,12.43
2023-03-04T06:37:02.918Z,13.05
2023-03-04T06:39:06.372Z,12.10
2023-03-04T06:41:10.146Z,12.13
2023-03-04T06:43:12.783Z,12.13
2023-03-04T06:45:15.463Z,13.80
2023-03-04T06:47:18.838Z,13.52
2023-03-04T06:49:22.830Z,12.10
2023-03-04T06:51:25.397Z,12.45
2023-03-04T06:53:28.013Z,13.10
2023-03-04T06:55:30.601Z,12.05
2023-03-04T06:57:33.261Z,12.32
2023-03-04T06:59:36.049Z,12.40
2023-03-04T07:01:39.059Z,12.77
2023-03-04T07:03:41.783Z,11.85
2023-03-04T07:05:45.811Z,12.32
2023-03-04T07:07:49.566Z,13.05
2023-03-04T07:09:52.216Z,12.40
2023-03-04T07:11:54.942Z,10.68
2023-03-04T07:13:57.549Z,11.88
2023-03-04T07:16:00.846Z,11.55
2023-03-04T07:18:03.467Z,13.23
2023-03-04T07:20:06.885Z,13.07
2023-03-04T07:22:10.823Z,11.07
2023-03-04T07:24:13.613Z,10.13
2023-03-04T07:26:16.844Z,13.77
2023-03-04T07:28:19.490Z,12.32
2023-03-04T07:30:22.223Z,13.45
2023-03-04T07:32:24.981Z,12.57
2023-03-04T07:34:27.610Z,12.75
2023-03-04T07:36:30.736Z,11.68
2023-03-04T07:38:35.564Z,12.10
2023-03-04T07:40:38.625Z,12.27
2023-03-04T07:42:41.236Z,12.07
2023-03-04T07:44:43.857Z,12.68
2023-03-04T07:46:46.512Z,12.55
2023-03-04T07:48:49.201Z,12.35
2023-03-04T07:50:51.825Z,13.95
2023-03-04T07:52:54.469Z,12.13
2023-03-04T07:54:58.423Z,14.15
2023-03-04T07:57:01.220Z,11.98
2023-03-04T07:59:04.173Z,13.57
2023-03-04T08:01:10.841Z,12.00
2023-03-04T08:03:13.404Z,11.57
2023-03-04T08:05:16.197Z,11.45
2023-03-04T08:07:18.871Z,12.00
2023-03-04T08:09:21.505Z,12.02
2023-03-04T08:11:26.500Z,13.68
2023-03-04T08:13:29.112Z,13.10
2023-03-04T08:15:32.863Z,11.25
2023-03-04T08:17:35.945Z,11.93
2023-03-04T08:19:38.587Z,11.68
2023-03-04T08:21:41.365Z,12.20
2023-03-04T08:23:44.041Z,12.27
2023-03-04T08:25:47.127Z,11.35
2023-03-04T08:27:51.182Z,10.85
2023-03-04T08:29:53.851Z,13.13
2023-03-04T08:31:56.755Z,11.57
2023-03-04T08:33:59.494Z,11.90
2023-03-04T08:36:02.164Z,13.05
2023-03-04T08:38:04.828Z,12.23
2023-03-04T08:40:08.811Z,11.43
2023-03-04T08:42:11.413Z,11.50
2023-03-04T08:44:15.508Z,12.02
2023-03-04T08:46:18.234Z,12.20
2023-03-04T08:48:21.231Z,11.48
2023-03-04T08:50:23.846Z,10.23
2023-03-04T08:52:27.038Z,10.32
2023-03-04T08:54:29.678Z,10.95
2023-03-04T08:56:32.467Z,11.40
2023-03-04T08:58:35.145Z,11.40
2023-03-04T09:00:42.904Z,11.70
2023-03-04T09:02:45.560Z,11.63
2023-03-04T09:04:48.201Z,10.82
2023-03-04T09:06:52.820Z,10.70
2023-03-04T09:08:56.453Z,9.60
2023-03-04T09:10:59.089Z,10.23
2023-03-04T09:13:01.878Z,10.02
2023-03-04T09:15:11.607Z,10.70
2023-03-04T09:17:15.868Z,10.77
2023-03-04T09:19:18.619Z,11.07
2023-03-04T09:21:21.277Z,11.57
2023-03-04T09:23:24.152Z,11.32
2023-03-04T09:25:26.782Z,10.77
2023-03-04T09:27:29.521Z,11.73
2023-03-04T09:29:32.305Z,10.13
2023-03-04T09:31:35.048Z,10.63
2023-03-04T09:33:41.456Z,11.65
2023-03-04T09:35:44.774Z,10.85
2023-03-04T09:37:48.865Z,11.50
2023-03-04T09:39:51.573Z,11.20
2023-03-04T09:41:57.713Z,12.13
2023-03-04T09:44:00.998Z,10.68
2023-03-04T09:46:09.120Z,9.55
2023-03-04T09:48:16.986Z,10.65
2023-03-04T09:50:22.108Z,11.38
2023-03-04T09:52:38.716Z,11.15
2023-03-04T09:54:58.159Z,10.15
2023-03-04T09:57:15.291Z,10.35
2023-03-04T09:59:26.192Z,11.05
2023-03-04T10:01:35.277Z,11.23
2023-03-04T10:03:44.766Z,10.68
2023-03-04T10:05:55.974Z,12.95
2023-03-04T10:08:01.793Z,10.77
2023-03-04T10:10:08.284Z,10.07
2023-03-04T10:12:14.935Z,11.80
2023-03-04T10:14:35.063Z,10.43
2023-03-04T10:16:43.606Z,10.60
2023-03-04T10:18:51.269Z,12.63
2023-03-04T10:21:01.524Z,13.10
2023-03-04T10:23:11.426Z,12.82
2023-03-04T10:25:20.239Z,11.80
2023-03-04T10:27:23.699Z,12.60
2023-03-04T10:29:26.960Z,11.25
2023-03-04T10:31:35.077Z,12.10
2023-03-04T10:33:39.494Z,12.32
2023-03-04T10:35:46.026Z,12.25
2023-03-04T10:37:51.820Z,13.55
2023-03-04T10:39:54.413Z,12.05
2023-03-04T10:42:00.757Z,13.45
2023-03-04T10:44:05.700Z,12.10
2023-03-04T10:46:12.238Z,11.85
2023-03-04T10:48:21.645Z,12.95
2023-03-04T10:50:26.430Z,13.27
2023-03-04T10:52:31.389Z,13.73
2023-03-04T10:54:42.545Z,12.18
2023-03-04T10:56:55.879Z,12.55
2023-03-04T10:59:36.456Z,11.85
2023-03-04T11:01:39.250Z,12.45
2023-03-04T11:03:50.079Z,12.93
2023-03-04T11:06:04.695Z,12.10
2023-03-04T11:08:16.407Z,13.65
2023-03-04T11:10:23.778Z,12.23
2023-03-04T11:12:34.893Z,13.15
2023-03-04T11:14:41.394Z,13.95
2023-03-04T11:16:54.157Z,14.30
2023-03-04T11:19:01.493Z,12.63
2023-03-04T11:21:04.381Z,12.35
2023-03-04T11:23:12.325Z,13.57
2023-03-04T11:25:26.334Z,14.73
2023-03-04T11:27:42.925Z,14.70
2023-03-04T11:29:52.561Z,13.90
2023-03-04T11:31:59.300Z,14.63
2023-03-04T11:34:05.801Z,14.60
2023-03-04T11:36:23.712Z,13.68
2023-03-04T11:38:33.468Z,14.30
2023-03-04T11:40:42.156Z,15.93
2023-03-04T11:42:50.268Z,16.10
2023-03-04T11:44:53.460Z,16.13
2023-03-04T11:47:12.746Z,16.50
2023-03-04T11:49:31.177Z,16.63
2023-03-04T11:51:42.657Z,15.93
2023-03-04T11:53:57.579Z,16.15
2023-03-04T11:56:14.167Z,18.00
2023-03-04T11:58:45.341Z,14.25
2023-03-04T12:00:53.534Z,13.50
2023-03-04T12:03:17.042Z,15.93
2023-03-04T12:05:37.525Z,15.02
2023-03-04T12:08:13.960Z,16.23
2023-03-04T12:10:26.757Z,14.80
2023-03-04T12:14:53.115Z,16.38
2023-03-04T12:17:10.115Z,16.77
2023-03-04T12:19:35.104Z,16.42
2023-03-04T12:22:00.894Z,15.18
2023-03-04T12:24:40.351Z,16.02
2023-03-04T12:26:50.606Z,16.50
2023-03-04T12:29:01.822Z,17.27
2023-03-04T12:31:39.074Z,17.58
2023-03-04T12:33:55.935Z,16.33
2023-03-04T12:36:07.454Z,15.48
2023-03-04T12:38:28.244Z,15.00
2023-03-04T12:40:42.417Z,16.63
2023-03-04T12:43:01.449Z,15.18
2023-03-04T12:45:18.082Z,14.23
2023-03-04T12:47:29.765Z,15.75
2023-03-04T12:49:45.163Z,16.52
2023-03-04T12:51:53.217Z,15.23
2023-03-04T12:54:06.388Z,15.65
2023-03-04T12:56:23.024Z,15.05
2023-03-04T12:58:28.739Z,14.60
2023-03-04T13:00:44.664Z,15.20
2023-03-04T13:02:58.387Z,14.63
2023-03-04T13:05:14.985Z,14.60
2023-03-04T13:07:31.208Z,15.93
2023-03-04T13:09:39.341Z,17.02
2023-03-04T13:11:52.724Z,15.90
2023-03-04T13:14:06.291Z,17.88
2023-03-04T13:16:32.557Z,16.70
2023-03-04T13:18:39.396Z,17.25
2023-03-04T13:20:42.881Z,18.20
2023-03-04T13:22:54.444Z,17.27
2023-03-04T13:24:58.640Z,18.02
2023-03-04T13:27:01.337Z,17.60
2023-03-04T13:29:34.828Z,17.85
2023-03-04T13:32:00.663Z,16.73
2023-03-04T13:34:05.625Z,17.67
2023-03-04T13:36:28.903Z,15.98
2023-03-04T13:38:36.360Z,17.10
2023-03-04T13:40:39.613Z,17.25
2023-03-04T13:42:43.858Z,15.90
2023-03-04T13:45:04.505Z,16.60
2023-03-04T13:47:18.084Z,16.67
2023-03-04T13:49:24.621Z,16.02
2023-03-04T13:51:30.678Z,15.82
2023-03-04T13:53:42.104Z,15.20
2023-03-04T13:55:44.982Z,14.85
2023-03-04T13:57:50.797Z,15.88
2023-03-04T13:59:57.020Z,15.32
2023-03-04T14:02:04.987Z,14.00
2023-03-04T14:04:19.540Z,14.45
2023-03-04T14:06:24.256Z,16.13
2023-03-04T14:08:26.900Z,14.27
2023-03-04T14:10:29.750Z,14.40
2023-03-04T14:12:35.853Z,12.68
2023-03-04T14:14:48.133Z,13.40
2023-03-04T14:16:53.961Z,12.52
2023-03-04T14:19:02.762Z,12.43
2023-03-04T14:21:07.596Z,12.23
2023-03-04T14:23:25.460Z,12.13
2023-03-04T14:25:30.400Z,12.15
2023-03-04T14:27:36.240Z,11.07
2023-03-04T14:29:38.944Z,11.10
2023-03-04T14:31:41.732Z,10.05
2023-03-04T14:33:47.561Z,12.27
2023-03-04T14:35:52.120Z,10.25
2023-03-04T14:38:00.877Z,10.30
2023-03-04T14:40:05.029Z,11.77
2023-03-04T14:42:11.974Z,9.35
2023-03-04T14:46:23.625Z,10.20
2023-03-04T14:48:29.895Z,9.93
2023-03-04T14:50:33.291Z,9.73
2023-03-04T14:52:38.993Z,10.63
2023-03-04T14:54:43.229Z,11.10
2023-03-04T14:56:46.010Z,11.73
2023-03-04T14:58:55.701Z,10.63
2023-03-04T15:01:15.241Z,11.10
2023-03-04T15:03:22.298Z,9.95
2023-03-04T15:05:27.312Z,10.07
2023-03-04T15:07:34.536Z,11.23
2023-03-04T15:09:38.020Z,9.93
2023-03-04T15:11:50.000Z,10.95
2023-03-04T15:13:55.643Z,10.75
2023-03-04T15:16:02.660Z,11.35
2023-03-04T15:18:15.454Z,11.40
2023-03-04T15:20:26.319Z,12.18
2023-03-04T15:22:29.463Z,11.48
2023-03-04T15:24:32.166Z,10.65
2023-03-04T15:26:39.496Z,11.82
2023-03-04T15:28:44.254Z,11.63
2023-03-04T15:30:47.064Z,11.57
2023-03-04T15:32:49.869Z,10.80
2023-03-04T15:34:52.759Z,10.15
2023-03-04T15:36:57.666Z,11.07
2023-03-04T15:39:00.331Z,11.63
2023-03-04T15:41:03.131Z,13.68
2023-03-04T15:43:07.157Z,11.02
2023-03-04T15:45:22.510Z,10.25
2023-03-04T15:47:25.677Z,9.82
2023-03-04T15:49:29.788Z,9.68
2023-03-04T15:51:32.539Z,13.27
2023-03-04T15:53:39.536Z,13.70
2023-03-04T15:55:44.665Z,10.18
2023-03-04T15:57:49.611Z,11.45
2023-03-04T15:59:52.987Z,11.15
2023-03-04T16:01:56.951Z,10.23
2023-03-04T16:03:59.723Z,10.23
2023-03-04T16:06:02.519Z,12.88
2023-03-04T16:08:05.591Z,11.15
2023-03-04T16:10:15.062Z,12.43
2023-03-04T16:12:17.773Z,10.23
2023-03-04T16:14:20.374Z,10.00
2023-03-04T16:16:22.981Z,9.57
2023-03-04T16:18:27.062Z,10.77
2023-03-04T16:20:30.956Z,12.70
2023-03-04T16:22:33.585Z,10.40
2023-03-04T16:24:36.395Z,11.00
2023-03-04T16:26:39.075Z,10.88
2023-03-04T16:28:43.210Z,10.35
2023-03-04T16:30:45.920Z,11.02
2023-03-04T16:32:48.669Z,10.93
2023-03-04T16:34:52.670Z,11.13
2023-03-04T16:36:55.380Z,13.65
2023-03-04T16:38:59.900Z,11.40
2023-03-04T16:41:02.935Z,11.73
2023-03-04T16:43:05.538Z,10.40
2023-03-04T16:45:15.919Z,11.43
2023-03-04T16:47:18.523Z,11.10
2023-03-04T16:49:21.181Z,9.82
2023-03-04T16:51:25.351Z,11.70
2023-03-04T16:53:32.840Z,10.30
2023-03-04T16:55:38.330Z,11.15
2023-03-04T16:57:40.956Z,10.68
2023-03-04T16:59:45.826Z,12.68
2023-03-04T17:01:49.227Z,11.10
2023-03-04T17:03:52.011Z,11.07
2023-03-04T17:05:54.628Z,10.27
2023-03-04T17:07:58.907Z,10.95
2023-03-04T17:10:01.671Z,11.80
2023-03-04T17:12:04.817Z,11.57
2023-03-04T17:14:07.464Z,10.85
2023-03-04T17:16:12.297Z,10.73
2023-03-04T17:18:15.044Z,13.07
2023-03-04T17:20:19.233Z,11.27
2023-03-04T17:22:22.567Z,12.60
2023-03-04T17:24:26.918Z,11.57
2023-03-04T17:26:29.641Z,13.07
2023-03-04T17:28:32.698Z,11.35
2023-03-04T17:30:35.320Z,10.57
2023-03-04T17:32:39.447Z,10.43
2023-03-04T17:34:42.333Z,11.23
2023-03-04T17:36:45.013Z,11.63
2023-03-04T17:38:47.925Z,10.98
2023-03-04T17:40:51.924Z,11.57
2023-03-04T17:42:54.559Z,12.48
2023-03-04T17:44:57.194Z,11.95
2023-03-04T17:46:59.903Z,11.65
2023-03-04T17:49:02.693Z,12.70
2023-03-04T17:51:05.731Z,10.93
2023-03-04T17:53:08.345Z,12.48
2023-03-04T17:55:11.500Z,11.75
2023-03-04T17:57:15.571Z,12.02
2023-03-04T17:59:18.808Z,12.95
2023-03-04T18:01:21.808Z,12.43
2023-03-04T18:03:24.441Z,13.77
2023-03-04T18:05:27.124Z,12.85
2023-03-04T18:07:30.004Z,12.63
2023-03-04T18:09:32.661Z,11.80
2023-03-04T18:11:38.165Z,11.93
2023-03-04T18:13:44.031Z,11.10
2023-03-04T18:15:46.695Z,11.55
2023-03-04T18:17:50.182Z,10.48
2023-03-04T18:19:52.792Z,11.98
2023-03-04T18:21:55.431Z,11.98
2023-03-04T18:23:58.886Z,10.93
2023-03-04T18:26:02.429Z,11.23
2023-03-04T18:28:05.234Z,11.57
2023-03-04T18:30:11.941Z,12.25
2023-03-04T18:32:14.629Z,11.20
2023-03-04T18:34:17.325Z,11.30
2023-03-04T18:36:20.239Z,11.63
2023-03-04T18:38:22.874Z,11.00
2023-03-04T18:40:25.589Z,20.85
2023-03-04T18:42:28.233Z,13.73
2023-03-04T18:44:30.880Z,10.77
2023-03-04T18:46:41.993Z,12.80
2023-03-04T18:48:46.831Z,10.57
2023-03-04T18:50:50.352Z,11.07
2023-03-04T18:52:54.166Z,10.25
2023-03-04T18:54:56.791Z,10.93
2023-03-04T18:57:03.418Z,11.20
2023-03-04T18:59:11.498Z,11.57
2023-03-04T19:01:17.641Z,11.38
2023-03-04T19:03:21.817Z,11.48
2023-03-04T19:05:27.646Z,12.25
2023-03-04T19:07:30.391Z,12.68
2023-03-04T19:09:33.040Z,12.45
2023-03-04T19:11:35.713Z,10.57
2023-03-04T19:13:38.420Z,13.25
2023-03-04T19:15:41.052Z,13.10
2023-03-04T19:17:45.306Z,13.25
2023-03-04T19:19:49.292Z,12.38
2023-03-04T19:21:51.894Z,11.93
2023-03-04T19:23:54.564Z,10.50
2023-03-04T19:25:57.211Z,11.23
2023-03-04T19:28:00.965Z,11.52
2023-03-04T19:30:04.545Z,11.50
2023-03-04T19:32:07.723Z,12.07
2023-03-04T19:34:10.501Z,10.57
2023-03-04T19:36:14.551Z,12.30
2023-03-04T19:38:17.227Z,10.80
2023-03-04T19:40:21.055Z,13.50
2023-03-04T19:42:24.562Z,12.20
2023-03-04T19:44:27.329Z,10.77
2023-03-04T19:46:32.210Z,11.60
2023-03-04T19:48:36.186Z,12.18
2023-03-04T19:50:38.837Z,11.82
2023-03-04T19:52:43.242Z,11.05
2023-03-04T19:54:45.952Z,10.70
2023-03-04T19:56:48.598Z,11.48
2023-03-04T19:58:54.079Z,10.27
2023-03-04T20:00:57.458Z,10.05
2023-03-04T20:03:01.636Z,9.93
2023-03-04T20:05:05.153Z,9.90
2023-03-04T20:07:07.781Z,11.73
2023-03-04T20:09:13.155Z,10.57
2023-03-04T20:11:15.828Z,11.43
2023-03-04T20:13:19.465Z,10.85
2023-03-04T20:15:22.116Z,12.40
2023-03-04T20:17:24.749Z,11.68
2023-03-04T20:19:27.575Z,10.93
2023-03-04T20:21:32.328Z,12.15
2023-03-04T20:23:35.617Z,12.93
2023-03-04T20:25:39.576Z,11.30
2023-03-04T20:27:42.235Z,11.63
2023-03-04T20:29:46.257Z,10.90
2023-03-04T20:31:49.179Z,10.88
2023-03-04T20:33:52.758Z,11.35
2023-03-04T20:35:55.490Z,12.20
2023-03-04T20:37:58.179Z,10.50
2023-03-04T20:40:01.035Z,10.32
2023-03-04T20:42:06.590Z,10.43
2023-03-04T20:44:09.244Z,10.48
2023-03-04T20:46:34.529Z,10.93
2023-03-04T20:48:37.145Z,11.90
2023-03-04T20:50:40.050Z,10.93
2023-03-04T20:52:42.687Z,10.27
2023-03-04T20:54:45.885Z,11.05
2023-03-04T20:56:48.776Z,10.65
2023-03-04T20:58:53.457Z,10.38
2023-03-04T21:00:56.154Z,11.70
2023-03-04T21:02:58.735Z,10.80
2023-03-04T21:05:02.008Z,13.20
2023-03-04T21:07:04.830Z,13.63
2023-03-04T21:09:09.321Z,10.73
2023-03-04T21:11:12.595Z,10.10
2023-03-04T21:13:16.666Z,11.40
2023-03-04T21:15:20.726Z,11.45
2023-03-04T21:17:24.420Z,9.52
2023-03-04T21:19:29.192Z,9.93
2023-03-04T21:21:32.268Z,9.90
2023-03-04T21:23:37.381Z,9.70
2023-03-04T21:25:41.457Z,10.90
2023-03-04T21:27:44.042Z,10.50
2023-03-04T21:29:46.704Z,11.25
2023-03-04T21:31:53.776Z,11.32
2023-03-04T21:33:58.605Z,11.10
2023-03-04T21:36:01.359Z,10.10
2023-03-04T21:38:03.963Z,10.82
2023-03-04T21:40:08.347Z,10.25
2023-03-04T21:42:11.364Z,11.10
2023-03-04T21:44:22.875Z,9.90
2023-03-04T21:46:32.265Z,10.93
2023-03-04T21:48:37.185Z,10.65
2023-03-04T21:50:39.769Z,10.93
2023-03-04T21:52:42.446Z,11.38
2023-03-04T21:54:45.280Z,10.80
2023-03-04T21:56:48.080Z,12.27
2023-03-04T21:58:50.734Z,10.02
2023-03-04T22:00:53.766Z,10.07
2023-03-04T22:02:56.434Z,10.25
2023-03-04T22:05:00.410Z,9.57
2023-03-04T22:07:03.357Z,10.30
2023-03-04T22:09:06.310Z,11.13
2023-03-04T22:11:11.410Z,11.05
2023-03-04T22:13:16.149Z,10.65
2023-03-04T22:15:18.997Z,10.20
2023-03-04T22:17:21.797Z,9.68
2023-03-04T22:19:25.820Z,10.25
2023-03-04T22:21:29.944Z,10.65
2023-03-04T22:23:33.520Z,10.30
2023-03-04T22:25:36.698Z,10.50
2023-03-04T22:27:39.315Z,10.43
2023-03-04T22:29:41.906Z,10.98
2023-03-04T22:31:45.969Z,9.95
2023-03-04T22:33:48.794Z,10.60
2023-03-04T22:35:52.500Z,11.00
2023-03-04T22:37:56.546Z,11.52
2023-03-04T22:39:59.242Z,11.52
2023-03-04T22:42:01.973Z,10.75
2023-03-04T22:44:05.995Z,11.38
2023-03-04T22:46:16.153Z,10.20
2023-03-04T22:48:19.107Z,10.45
2023-03-04T22:50:22.851Z,10.90
2023-03-04T22:52:25.498Z,11.43
2023-03-04T22:54:29.651Z,11.85
2023-03-04T22:56:32.409Z,11.13
2023-03-04T22:58:35.117Z,12.13
2023-03-04T23:00:38.601Z,11.23
2023-03-04T23:02:41.308Z,10.88
2023-03-04T23:04:43.997Z,10.63
2023-03-04T23:06:46.642Z,11.50
2023-03-04T23:08:51.272Z,11.30
2023-03-04T23:10:55.356Z,11.75
2023-03-04T23:12:58.083Z,11.07
2023-03-04T23:15:01.021Z,10.63
2023-03-04T23:17:04.004Z,11.25
2023-03-04T23:19:07.378Z,11.70
2023-03-04T23:21:11.310Z,11.70
2023-03-04T23:23:13.999Z,11.20
2023-03-04T23:25:17.820Z,12.07
2023-03-04T23:27:21.863Z,10.25
2023-03-04T23:29:24.565Z,11.75
2023-03-04T23:31:27.291Z,11.05
2023-03-04T23:33:29.996Z,10.23
2023-03-04T23:35:32.684Z,11.68
2023-03-04T23:37:35.303Z,10.82
2023-03-04T23:39:38.020Z,12.60
2023-03-04T23:41:40.867Z,10.50
2023-03-04T23:43:45.342Z,11.38
2023-03-04T23:45:48.042Z,9.75
2023-03-04T23:47:50.814Z,10.65
2023-03-04T23:49:53.625Z,10.60
2023-03-04T23:51:56.336Z,11.20
2023-03-04T23:53:59.479Z,11.48
2023-03-04T23:56:02.141Z,10.20
2023-03-04T23:58:04.818Z,10.95
